Time;durP1;ratioP1;P1;durP2;ratioP2;P2;SDS_P1;SDS_P2;PMS_P1;PMS_P2;Temp;Humidity;BMP_temperature;BMP_pressure;BME280_temperature;BME280_humidity;BME280_pressure;Samples;Min_cycle;Max_cycle;Signal;HPM_P1;HPM_P2
2021/12/09 00:01:43;;;;;;;36.67;18.77;;;1.90;99.90;;;;;;5046245;28;20735;-40
2021/12/09 00:04:13;;;;;;;39.80;18.47;;;1.90;99.90;;;;;;5039280;28;20207;-39
2021/12/09 00:06:42;;;;;;;36.63;18.53;;;1.90;99.90;;;;;;5051032;28;20224;-39
2021/12/09 00:09:11;;;;;;;35.80;17.97;;;1.90;99.90;;;;;;5057260;28;20251;-39
2021/12/09 00:11:45;;;;;;;33.83;17.47;;;1.90;99.90;;;;;;5047000;28;20565;-40
2021/12/09 00:14:15;;;;;;;39.77;19.53;;;1.90;99.90;;;;;;5051510;28;20233;-40
2021/12/09 00:16:43;;;;;;;38.87;18.27;;;1.90;99.90;;;;;;5049195;28;20210;-40
2021/12/09 00:19:10;;;;;;;34.40;16.97;;;1.90;99.90;;;;;;5053298;28;20219;-39
2021/12/09 00:21:37;;;;;;;34.43;18.07;;;1.90;99.90;;;;;;5038870;28;20218;-42
2021/12/09 00:24:05;;;;;;;41.47;19.70;;;1.90;99.90;;;;;;5050476;28;20195;-39
2021/12/09 00:26:32;;;;;;;36.50;19.17;;;1.90;99.90;;;;;;5063246;28;20214;-42
2021/12/09 00:29:00;;;;;;;33.90;18.07;;;1.90;99.90;;;;;;5064375;28;20580;-42
2021/12/09 00:31:27;;;;;;;38.30;18.93;;;1.90;99.90;;;;;;5044774;28;20965;-42
2021/12/09 00:33:56;;;;;;;34.90;18.17;;;1.90;99.90;;;;;;5052442;28;20283;-42
2021/12/09 00:36:31;;;;;;;36.87;18.07;;;1.90;99.90;;;;;;5044742;28;20203;-41
2021/12/09 00:38:58;;;;;;;37.10;19.20;;;1.90;99.90;;;;;;5047897;28;20253;-41
2021/12/09 00:41:25;;;;;;;39.33;19.63;;;1.90;99.90;;;;;;5042586;28;20203;-39
2021/12/09 00:43:52;;;;;;;42.03;19.67;;;1.90;99.90;;;;;;5054011;28;20289;-42
2021/12/09 00:46:21;;;;;;;38.47;20.00;;;1.90;99.90;;;;;;5046113;28;20222;-41
2021/12/09 00:48:48;;;;;;;35.20;18.53;;;1.90;99.90;;;;;;5045612;28;20677;-40
2021/12/09 00:51:15;;;;;;;34.13;18.83;;;1.90;99.90;;;;;;5034508;28;20294;-40
2021/12/09 00:53:41;;;;;;;34.73;18.30;;;1.90;99.90;;;;;;5052557;28;20207;-40
2021/12/09 00:56:10;;;;;;;41.63;19.20;;;1.90;99.90;;;;;;5049052;28;20206;-40
2021/12/09 00:58:37;;;;;;;37.20;18.93;;;1.90;99.90;;;;;;5044585;28;20691;-39
2021/12/09 01:01:04;;;;;;;38.47;20.17;;;1.90;99.90;;;;;;5048174;28;20202;-40
2021/12/09 01:03:32;;;;;;;39.40;19.33;;;1.90;99.90;;;;;;5043593;28;20207;-41
2021/12/09 01:05:59;;;;;;;40.80;19.40;;;1.90;99.90;;;;;;5044581;28;20206;-40
2021/12/09 01:08:26;;;;;;;36.43;18.20;;;1.90;99.90;;;;;;5045111;28;20946;-40
2021/12/09 01:10:53;;;;;;;39.40;19.17;;;1.90;99.90;;;;;;5047097;28;20207;-41
2021/12/09 01:13:20;;;;;;;43.57;19.83;;;1.80;99.90;;;;;;5040861;28;20907;-40
2021/12/09 01:15:47;;;;;;;31.80;18.77;;;1.90;99.90;;;;;;5050951;28;20199;-39
2021/12/09 01:18:13;;;;;;;37.57;18.90;;;1.90;99.90;;;;;;5047328;28;20228;-40
2021/12/09 01:20:42;;;;;;;38.20;19.73;;;1.80;99.90;;;;;;5044895;28;20565;-40
2021/12/09 01:23:09;;;;;;;31.93;17.80;;;1.80;99.90;;;;;;5034451;28;20230;-40
2021/12/09 01:25:37;;;;;;;36.90;19.67;;;1.80;99.90;;;;;;5050718;28;20214;-40
2021/12/09 01:28:06;;;;;;;40.17;19.57;;;1.80;99.90;;;;;;5060518;28;20226;-40
2021/12/09 01:30:32;;;;;;;39.23;19.67;;;1.80;99.90;;;;;;5062367;28;20202;-40
2021/12/09 01:32:59;;;;;;;41.13;20.70;;;1.80;99.90;;;;;;5047420;28;20676;-40
2021/12/09 01:35:29;;;;;;;39.57;20.00;;;1.80;99.90;;;;;;5041194;28;20206;-40
2021/12/09 01:38:01;;;;;;;40.20;20.63;;;1.80;99.90;;;;;;5043659;28;20205;-40
2021/12/09 01:40:30;;;;;;;44.00;20.93;;;1.80;99.90;;;;;;5046506;28;20282;-40
2021/12/09 01:42:59;;;;;;;43.57;20.03;;;1.80;99.90;;;;;;5044669;28;20211;-41
2021/12/09 01:45:26;;;;;;;43.23;20.47;;;1.80;99.90;;;;;;5041598;28;20195;-41
2021/12/09 01:47:53;;;;;;;43.40;21.50;;;1.80;99.90;;;;;;5041084;28;20227;-42
2021/12/09 01:50:20;;;;;;;47.43;21.93;;;1.80;99.90;;;;;;5048704;28;20194;-40
2021/12/09 01:52:47;;;;;;;44.40;21.47;;;1.80;99.90;;;;;;5050416;28;20207;-42
2021/12/09 01:55:17;;;;;;;45.63;21.13;;;1.80;99.90;;;;;;5035996;28;20257;-40
2021/12/09 01:57:47;;;;;;;51.20;22.77;;;1.80;99.90;;;;;;5044019;28;20648;-41
2021/12/09 02:00:17;;;;;;;45.47;21.57;;;1.70;99.90;;;;;;5053063;28;20206;-41
2021/12/09 02:02:44;;;;;;;47.00;21.97;;;1.70;99.90;;;;;;5045523;28;20215;-39
2021/12/09 02:05:12;;;;;;;43.43;21.07;;;1.70;99.90;;;;;;5040588;28;20199;-40
2021/12/09 02:07:40;;;;;;;48.83;21.00;;;1.70;99.90;;;;;;5046603;28;20219;-42
2021/12/09 02:10:10;;;;;;;46.80;23.23;;;1.70;99.90;;;;;;5040176;28;20218;-41
2021/12/09 02:12:38;;;;;;;50.87;22.73;;;1.70;99.90;;;;;;5049998;28;20199;-39
2021/12/09 02:15:06;;;;;;;41.27;20.80;;;1.70;99.90;;;;;;5048788;28;20237;-39
2021/12/09 02:17:33;;;;;;;51.70;22.57;;;1.70;99.90;;;;;;5047796;28;20201;-41
2021/12/09 02:20:05;;;;;;;44.13;22.27;;;1.70;99.90;;;;;;5040470;28;20277;-42
2021/12/09 02:22:33;;;;;;;45.67;21.07;;;1.70;99.90;;;;;;5052354;28;20541;-40
2021/12/09 02:25:00;;;;;;;47.80;21.73;;;1.70;99.90;;;;;;5041591;28;20202;-40
2021/12/09 02:27:27;;;;;;;43.37;22.53;;;1.70;99.90;;;;;;5049235;28;20226;-40
2021/12/09 02:29:57;;;;;;;43.93;21.43;;;1.70;99.90;;;;;;5048397;28;20214;-40
2021/12/09 02:32:24;;;;;;;44.10;20.90;;;1.70;99.90;;;;;;5057675;28;20198;-40
2021/12/09 02:34:51;;;;;;;46.77;21.27;;;1.70;99.90;;;;;;5045590;28;20207;-39
2021/12/09 02:37:17;;;;;;;50.03;22.17;;;1.70;99.90;;;;;;5043526;28;20199;-40
2021/12/09 02:39:45;;;;;;;53.50;21.93;;;1.60;99.90;;;;;;5031474;28;20228;-40
2021/12/09 02:42:13;;;;;;;47.53;22.60;;;1.70;99.90;;;;;;5049976;28;20825;-40
2021/12/09 02:44:40;;;;;;;47.90;21.20;;;1.60;99.90;;;;;;5051973;28;20209;-40
2021/12/09 02:47:06;;;;;;;46.33;21.87;;;1.70;99.90;;;;;;5042531;28;20238;-39
2021/12/09 02:49:35;;;;;;;48.50;24.17;;;1.70;99.90;;;;;;5044732;28;20231;-40
2021/12/09 02:52:04;;;;;;;52.03;22.27;;;1.60;99.90;;;;;;5041652;28;20202;-41
2021/12/09 02:54:31;;;;;;;48.60;23.23;;;1.60;99.90;;;;;;5035991;28;20203;-40
2021/12/09 02:57:04;;;;;;;52.87;23.70;;;1.60;99.90;;;;;;5050923;28;20190;-41
2021/12/09 02:59:31;;;;;;;49.80;23.20;;;1.60;99.90;;;;;;5042346;28;20222;-41
2021/12/09 03:02:00;;;;;;;45.03;21.77;;;1.70;99.90;;;;;;5041418;28;20278;-42
2021/12/09 03:04:36;;;;;;;48.20;22.87;;;1.60;99.90;;;;;;5042751;28;20619;-39
2021/12/09 03:07:04;;;;;;;52.93;23.67;;;1.60;99.90;;;;;;5058788;28;20438;-39
2021/12/09 03:09:30;;;;;;;51.30;22.50;;;1.60;99.90;;;;;;5057448;28;20226;-41
2021/12/09 03:12:04;;;;;;;48.73;22.90;;;1.60;99.90;;;;;;5040415;28;20203;-40
2021/12/09 03:14:30;;;;;;;51.00;23.60;;;1.60;99.90;;;;;;5042497;28;20755;-40
2021/12/09 03:16:57;;;;;;;53.63;23.73;;;1.60;99.90;;;;;;5043282;28;20206;-41
2021/12/09 03:19:24;;;;;;;51.93;22.80;;;1.70;99.90;;;;;;5054256;28;20233;-39
2021/12/09 03:21:51;;;;;;;53.00;25.03;;;1.60;99.90;;;;;;5043754;28;20927;-40
2021/12/09 03:24:19;;;;;;;48.03;22.00;;;1.60;99.90;;;;;;5043749;28;20203;-40
2021/12/09 03:26:49;;;;;;;57.87;23.20;;;1.60;99.90;;;;;;5040686;28;20950;-40
2021/12/09 03:29:19;;;;;;;51.97;24.87;;;1.60;99.90;;;;;;5057044;28;20585;-39
2021/12/09 03:31:48;;;;;;;48.50;22.73;;;1.60;99.90;;;;;;5040669;28;20196;-40
2021/12/09 03:34:16;;;;;;;51.50;24.53;;;1.60;99.90;;;;;;5047710;28;20210;-45
2021/12/09 03:36:44;;;;;;;53.50;23.17;;;1.60;99.90;;;;;;5041363;28;20214;-42
2021/12/09 03:39:15;;;;;;;55.87;24.43;;;1.60;99.90;;;;;;5048214;28;20699;-40
2021/12/09 03:41:43;;;;;;;56.20;23.17;;;1.60;99.90;;;;;;5041326;28;20210;-40
2021/12/09 03:44:11;;;;;;;54.57;23.77;;;1.60;99.90;;;;;;5050234;28;20206;-40
2021/12/09 03:46:39;;;;;;;55.63;25.73;;;1.60;99.90;;;;;;5057350;28;20770;-40
2021/12/09 03:49:06;;;;;;;53.53;24.80;;;1.60;99.90;;;;;;5048964;28;20219;-40
2021/12/09 03:51:35;;;;;;;53.07;24.43;;;1.60;99.90;;;;;;5050507;28;20209;-42
2021/12/09 03:54:02;;;;;;;54.13;23.30;;;1.60;99.90;;;;;;5054487;28;20205;-39
2021/12/09 03:56:29;;;;;;;55.30;23.70;;;1.60;99.90;;;;;;5043290;28;20208;-39
2021/12/09 03:58:56;;;;;;;56.50;24.30;;;1.50;99.90;;;;;;5046481;28;20992;-40
2021/12/09 04:01:23;;;;;;;55.90;24.43;;;1.50;99.90;;;;;;5053989;28;20215;-39
2021/12/09 04:03:51;;;;;;;56.03;24.27;;;1.60;99.90;;;;;;5040467;28;20207;-42
2021/12/09 04:06:18;;;;;;;52.53;22.90;;;1.50;99.90;;;;;;5065469;28;20206;-42
2021/12/09 04:08:44;;;;;;;55.13;24.57;;;1.50;99.90;;;;;;5049562;28;20298;-40
2021/12/09 04:11:11;;;;;;;52.73;23.43;;;1.50;99.90;;;;;;5046432;28;20256;-40
2021/12/09 04:13:38;;;;;;;54.33;23.67;;;1.60;99.90;;;;;;5043627;28;20211;-39
2021/12/09 04:16:07;;;;;;;54.23;23.63;;;1.60;99.90;;;;;;5048116;28;20245;-39
2021/12/09 04:18:34;;;;;;;58.53;23.63;;;1.60;99.90;;;;;;5060748;28;20244;-39
2021/12/09 04:21:03;;;;;;;51.70;24.37;;;1.50;99.90;;;;;;5048044;28;20191;-40
2021/12/09 04:23:30;;;;;;;58.60;25.37;;;1.60;99.90;;;;;;5050289;28;20209;-40
2021/12/09 04:25:57;;;;;;;52.10;23.80;;;1.50;99.90;;;;;;5045809;28;20202;-42
2021/12/09 04:28:24;;;;;;;61.00;24.57;;;1.50;99.90;;;;;;5041352;28;20221;-40
2021/12/09 04:30:51;;;;;;;56.30;24.20;;;1.50;99.90;;;;;;5047566;28;20221;-40
2021/12/09 04:33:18;;;;;;;53.87;23.77;;;1.50;99.90;;;;;;5052636;28;20198;-39
2021/12/09 04:35:45;;;;;;;56.70;23.43;;;1.50;99.90;;;;;;5053803;28;20206;-40
2021/12/09 04:38:13;;;;;;;50.67;22.07;;;1.50;99.90;;;;;;5054101;28;20215;-39
2021/12/09 04:40:40;;;;;;;59.13;24.87;;;1.50;99.90;;;;;;5040895;28;20217;-40
2021/12/09 04:43:07;;;;;;;50.77;23.23;;;1.50;99.90;;;;;;5046148;28;20515;-39
2021/12/09 04:45:34;;;;;;;58.47;25.40;;;1.50;99.90;;;;;;5050406;28;20961;-39
2021/12/09 04:48:04;;;;;;;53.73;24.03;;;1.50;99.90;;;;;;5046120;28;20225;-40
2021/12/09 04:50:30;;;;;;;50.20;23.43;;;1.40;99.90;;;;;;5043922;28;20569;-39
2021/12/09 04:52:57;;;;;;;54.00;24.73;;;1.40;99.90;;;;;;5045578;28;20217;-39
2021/12/09 04:55:26;;;;;;;51.43;22.27;;;1.40;99.90;;;;;;5042231;28;20214;-39
2021/12/09 04:57:54;;;;;;;52.23;24.50;;;1.40;99.90;;;;;;5045124;28;20236;-40
2021/12/09 05:00:23;;;;;;;62.47;25.00;;;1.40;99.90;;;;;;5033372;28;20213;-40
2021/12/09 05:03:02;;;;;;;52.40;24.20;;;1.40;99.90;;;;;;5056040;28;20206;-42
2021/12/09 05:05:32;;;;;;;53.10;24.33;;;1.40;99.90;;;;;;5048200;28;20598;-40
2021/12/09 05:07:59;;;;;;;60.93;24.30;;;1.40;99.90;;;;;;5051407;28;20223;-40
2021/12/09 05:10:27;;;;;;;51.50;23.60;;;1.40;99.90;;;;;;5046229;28;20280;-40
2021/12/09 05:12:53;;;;;;;55.33;23.10;;;1.40;99.90;;;;;;5050682;28;20214;-40
2021/12/09 05:15:20;;;;;;;55.77;24.07;;;1.40;99.90;;;;;;5030983;28;20229;-40
2021/12/09 05:17:47;;;;;;;52.83;25.33;;;1.40;99.90;;;;;;5056572;28;20198;-40
2021/12/09 05:20:13;;;;;;;51.27;23.63;;;1.40;99.90;;;;;;5046974;28;20220;-42
2021/12/09 05:22:40;;;;;;;54.23;24.83;;;1.40;99.90;;;;;;5055743;28;20216;-40
2021/12/09 05:25:07;;;;;;;55.30;23.43;;;1.40;99.90;;;;;;5043338;28;20195;-41
2021/12/09 05:27:37;;;;;;;48.63;23.37;;;1.40;99.90;;;;;;5042859;28;20215;-39
2021/12/09 05:30:08;;;;;;;47.40;22.63;;;1.40;99.90;;;;;;5041597;28;20223;-39
2021/12/09 05:32:33;;;;;;;55.63;24.13;;;1.40;99.90;;;;;;5044900;28;20896;-42
2021/12/09 05:35:00;;;;;;;53.43;23.73;;;1.40;99.90;;;;;;5057559;28;20230;-40
2021/12/09 05:37:28;;;;;;;52.87;22.60;;;1.40;99.90;;;;;;5046372;28;20193;-40
2021/12/09 05:39:57;;;;;;;55.90;24.80;;;1.40;99.90;;;;;;5054034;28;20229;-40
2021/12/09 05:42:25;;;;;;;58.90;24.67;;;1.40;99.90;;;;;;5038367;28;20289;-39
2021/12/09 05:44:54;;;;;;;54.27;23.63;;;1.40;99.90;;;;;;5049489;28;20656;-39
2021/12/09 05:47:21;;;;;;;47.00;22.37;;;1.40;99.90;;;;;;5029609;28;20199;-39
2021/12/09 05:49:49;;;;;;;46.33;23.13;;;1.40;99.90;;;;;;5056653;28;20213;-39
2021/12/09 05:52:17;;;;;;;47.10;22.57;;;1.50;99.90;;;;;;5052015;28;20202;-39
2021/12/09 05:54:44;;;;;;;49.30;23.77;;;1.40;99.90;;;;;;5051479;28;20203;-39
2021/12/09 05:57:11;;;;;;;44.83;22.17;;;1.40;99.90;;;;;;5039301;28;20207;-42
2021/12/09 05:59:41;;;;;;;49.67;22.87;;;1.40;99.90;;;;;;5042820;28;20534;-41
2021/12/09 06:02:10;;;;;;;50.20;23.73;;;1.40;99.90;;;;;;5035214;28;20700;-40
2021/12/09 06:04:37;;;;;;;48.97;23.07;;;1.40;99.90;;;;;;5053289;28;20198;-40
2021/12/09 06:07:05;;;;;;;50.60;22.40;;;1.40;99.90;;;;;;5050197;28;20206;-39
2021/12/09 06:09:32;;;;;;;45.70;21.10;;;1.40;99.90;;;;;;5058584;28;20223;-45
2021/12/09 06:11:59;;;;;;;46.07;23.10;;;1.40;99.90;;;;;;5048494;28;20193;-42
2021/12/09 06:14:26;;;;;;;49.80;24.17;;;1.30;99.90;;;;;;5048232;28;20217;-43
2021/12/09 06:16:53;;;;;;;53.93;24.97;;;1.30;99.90;;;;;;5035399;28;20198;-43
2021/12/09 06:19:21;;;;;;;55.90;23.77;;;1.40;99.90;;;;;;5054222;28;20218;-43
2021/12/09 06:21:48;;;;;;;45.40;23.70;;;1.30;99.90;;;;;;5059093;28;20212;-42
2021/12/09 06:24:15;;;;;;;53.90;24.77;;;1.30;99.90;;;;;;5052422;28;20186;-44
2021/12/09 06:26:42;;;;;;;56.53;24.47;;;1.30;99.90;;;;;;5048103;28;20216;-42
2021/12/09 06:29:09;;;;;;;53.63;24.30;;;1.30;99.90;;;;;;5049235;28;20221;-42
2021/12/09 06:31:36;;;;;;;56.60;23.70;;;1.30;99.90;;;;;;5050063;28;20210;-42
2021/12/09 06:34:03;;;;;;;53.90;24.07;;;1.30;99.90;;;;;;5045345;28;20785;-43
2021/12/09 06:36:31;;;;;;;53.00;23.60;;;1.30;99.90;;;;;;5059406;28;20198;-41
2021/12/09 06:38:58;;;;;;;62.53;27.57;;;1.40;99.90;;;;;;5047844;28;20211;-42
2021/12/09 06:41:24;;;;;;;56.67;26.13;;;1.30;99.90;;;;;;5055358;28;20222;-43
2021/12/09 06:43:51;;;;;;;55.80;23.87;;;1.30;99.90;;;;;;5048497;28;20205;-42
2021/12/09 06:46:18;;;;;;;58.47;26.47;;;1.30;99.90;;;;;;5048741;28;20209;-41
2021/12/09 06:48:44;;;;;;;51.47;24.73;;;1.30;99.90;;;;;;5042258;28;20244;-45
2021/12/09 06:51:12;;;;;;;57.67;25.37;;;1.30;99.90;;;;;;5054822;28;20193;-45
2021/12/09 06:53:40;;;;;;;54.37;24.93;;;1.30;99.90;;;;;;5051154;28;20305;-43
2021/12/09 06:56:07;;;;;;;55.00;24.33;;;1.30;99.90;;;;;;5052756;28;20197;-42
2021/12/09 06:58:35;;;;;;;58.20;25.30;;;1.30;99.90;;;;;;5054506;28;20224;-42
2021/12/09 07:01:01;;;;;;;54.60;24.47;;;1.30;99.90;;;;;;5053509;28;20195;-45
2021/12/09 07:03:28;;;;;;;58.60;25.73;;;1.30;99.90;;;;;;5047006;28;20209;-46
2021/12/09 07:06:01;;;;;;;55.57;24.90;;;1.30;99.90;;;;;;5047965;28;20207;-43
2021/12/09 07:08:28;;;;;;;53.90;23.97;;;1.30;99.90;;;;;;5051295;28;20226;-43
2021/12/09 07:10:56;;;;;;;61.07;24.83;;;1.30;99.90;;;;;;5041822;28;20217;-42
2021/12/09 07:13:23;;;;;;;52.07;23.00;;;1.30;99.90;;;;;;5046694;28;20694;-42
2021/12/09 07:15:50;;;;;;;55.47;23.70;;;1.30;99.90;;;;;;5053395;28;20194;-43
2021/12/09 07:18:20;;;;;;;52.23;24.80;;;1.30;99.90;;;;;;5052024;28;20219;-43
2021/12/09 07:20:47;;;;;;;50.87;24.03;;;1.30;99.90;;;;;;5039939;28;20664;-43
2021/12/09 07:23:14;;;;;;;53.50;24.17;;;1.30;99.90;;;;;;5047866;28;20225;-44
2021/12/09 07:25:41;;;;;;;52.67;25.97;;;1.30;99.90;;;;;;5050113;28;20209;-44
2021/12/09 07:28:09;;;;;;;55.97;25.63;;;1.40;99.90;;;;;;5050788;28;20607;-42
2021/12/09 07:30:36;;;;;;;53.33;24.63;;;1.30;99.90;;;;;;5054934;28;20194;-43
2021/12/09 07:33:02;;;;;;;55.13;24.07;;;1.30;99.90;;;;;;5054983;28;20201;-42
2021/12/09 07:35:30;;;;;;;53.03;25.07;;;1.40;99.90;;;;;;5035497;28;21953;-44
2021/12/09 07:37:57;;;;;;;56.60;26.20;;;1.40;99.90;;;;;;5057835;28;20253;-44
2021/12/09 07:40:24;;;;;;;59.10;25.73;;;1.30;99.90;;;;;;5047740;28;20205;-45
2021/12/09 07:42:51;;;;;;;56.77;25.43;;;1.30;99.90;;;;;;5050898;28;20581;-43
2021/12/09 07:45:20;;;;;;;58.37;24.70;;;1.30;99.90;;;;;;5045111;28;20214;-44
2021/12/09 07:47:48;;;;;;;53.77;25.60;;;1.40;99.90;;;;;;5045634;28;20194;-45
2021/12/09 07:50:18;;;;;;;57.17;24.87;;;1.40;99.90;;;;;;5039010;28;20206;-43
2021/12/09 07:52:48;;;;;;;55.87;24.97;;;1.40;99.90;;;;;;5046410;28;20293;-43
2021/12/09 07:55:16;;;;;;;58.37;25.30;;;1.40;99.90;;;;;;5048820;28;20610;-46
2021/12/09 07:57:43;;;;;;;56.07;25.50;;;1.40;99.90;;;;;;5048643;28;20217;-45
2021/12/09 08:00:14;;;;;;;55.17;25.77;;;1.40;99.90;;;;;;5050582;28;20212;-43
2021/12/09 08:02:44;;;;;;;59.27;25.60;;;1.40;99.90;;;;;;5040285;28;20195;-46
2021/12/09 08:05:12;;;;;;;55.27;25.33;;;1.40;99.90;;;;;;5050329;28;20203;-42
2021/12/09 08:07:41;;;;;;;57.60;25.50;;;1.40;99.90;;;;;;5041341;28;20240;-43
2021/12/09 08:10:10;;;;;;;50.37;24.00;;;1.40;99.90;;;;;;5044814;28;20263;-42
2021/12/09 08:12:37;;;;;;;50.13;23.73;;;1.40;99.90;;;;;;5049849;28;20211;-42
2021/12/09 08:15:04;;;;;;;54.93;25.97;;;1.40;99.90;;;;;;5052205;28;20593;-42
2021/12/09 08:17:58;;;;;;;54.13;25.27;;;1.40;99.90;;;;;;5045414;28;20954;-44
2021/12/09 08:20:27;;;;;;;54.27;24.07;;;1.40;99.90;;;;;;5042109;28;20199;-43
2021/12/09 08:22:54;;;;;;;57.33;25.70;;;1.40;99.90;;;;;;5048945;28;20667;-43
2021/12/09 08:25:22;;;;;;;52.13;24.17;;;1.40;99.90;;;;;;5045373;28;20210;-42
2021/12/09 08:27:49;;;;;;;50.97;23.40;;;1.40;99.90;;;;;;5051895;28;20203;-45
2021/12/09 08:30:19;;;;;;;51.93;22.83;;;1.40;99.90;;;;;;5052421;28;20211;-43
2021/12/09 08:32:46;;;;;;;60.83;25.57;;;1.40;99.90;;;;;;5051215;28;20194;-44
2021/12/09 08:35:15;;;;;;;53.20;24.20;;;1.40;99.90;;;;;;5048838;28;20206;-43
2021/12/09 08:37:44;;;;;;;52.50;24.23;;;1.50;99.90;;;;;;5039334;28;20870;-45
2021/12/09 08:40:12;;;;;;;58.23;24.93;;;1.50;99.90;;;;;;5047232;28;20228;-46
2021/12/09 08:42:39;;;;;;;55.30;25.10;;;1.50;99.90;;;;;;5043124;28;20202;-46
2021/12/09 08:45:09;;;;;;;52.87;23.63;;;1.50;99.90;;;;;;5047086;28;20206;-44
2021/12/09 08:47:37;;;;;;;53.67;24.33;;;1.50;99.90;;;;;;5044399;28;20899;-43
2021/12/09 08:50:06;;;;;;;56.47;25.77;;;1.50;99.90;;;;;;5047938;28;20218;-43
2021/12/09 08:52:32;;;;;;;54.47;25.57;;;1.50;99.90;;;;;;5041023;28;20332;-47
2021/12/09 08:55:01;;;;;;;57.70;26.30;;;1.50;99.90;;;;;;5059620;28;20201;-42
2021/12/09 08:57:27;;;;;;;58.13;26.70;;;1.50;99.90;;;;;;5037388;28;20191;-43
2021/12/09 08:59:54;;;;;;;59.47;26.17;;;1.50;99.90;;;;;;5051993;28;20221;-43
2021/12/09 09:02:21;;;;;;;58.73;26.33;;;1.50;99.90;;;;;;5049048;28;20199;-45
2021/12/09 09:04:47;;;;;;;56.47;25.30;;;1.50;99.90;;;;;;5055199;28;20306;-42
2021/12/09 09:07:14;;;;;;;60.23;27.10;;;1.50;99.90;;;;;;5040006;28;20651;-44
2021/12/09 09:09:41;;;;;;;59.13;26.57;;;1.50;99.90;;;;;;5047695;28;20952;-42
2021/12/09 09:12:13;;;;;;;62.37;26.53;;;1.60;99.90;;;;;;5047954;28;20207;-42
2021/12/09 09:14:41;;;;;;;59.93;24.73;;;1.60;99.90;;;;;;5045202;28;20217;-44
2021/12/09 09:17:08;;;;;;;57.37;26.33;;;1.60;99.90;;;;;;5050411;28;20203;-43
2021/12/09 09:19:35;;;;;;;51.80;25.93;;;1.60;99.90;;;;;;5053091;28;20798;-44
2021/12/09 09:22:03;;;;;;;65.23;27.63;;;1.60;99.90;;;;;;5046712;28;20198;-47
2021/12/09 09:24:30;;;;;;;60.90;27.47;;;1.60;99.90;;;;;;5035443;28;20210;-44
2021/12/09 09:26:57;;;;;;;55.67;24.60;;;1.60;99.90;;;;;;5055265;28;20228;-43
2021/12/09 09:29:25;;;;;;;55.80;26.30;;;1.60;99.90;;;;;;5049089;28;20647;-42
2021/12/09 09:31:52;;;;;;;61.40;25.53;;;1.60;99.90;;;;;;5057962;28;20205;-47
2021/12/09 09:34:19;;;;;;;66.40;27.00;;;1.60;99.90;;;;;;5048878;28;20195;-46
2021/12/09 09:36:46;;;;;;;58.97;27.23;;;1.60;99.90;;;;;;5046372;28;20221;-43
2021/12/09 09:39:21;;;;;;;61.83;27.70;;;1.60;99.90;;;;;;5035575;28;20576;-46
2021/12/09 09:41:56;;;;;;;60.00;27.10;;;1.70;99.90;;;;;;5051965;28;20285;-43
2021/12/09 09:44:33;;;;;;;60.93;25.53;;;1.70;99.90;;;;;;5042543;28;20206;-43
2021/12/09 09:47:02;;;;;;;58.73;26.03;;;1.70;99.90;;;;;;5050922;28;20245;-42
2021/12/09 09:49:30;;;;;;;58.37;25.27;;;1.70;99.90;;;;;;5051803;28;20226;-42
2021/12/09 09:51:58;;;;;;;62.97;26.93;;;1.80;99.90;;;;;;5052979;28;20286;-42
2021/12/09 09:54:26;;;;;;;58.47;25.37;;;1.70;99.90;;;;;;5031213;28;20206;-43
2021/12/09 09:56:53;;;;;;;58.57;24.97;;;1.70;99.90;;;;;;5045161;28;20949;-45
2021/12/09 09:59:20;;;;;;;56.33;25.20;;;1.70;99.90;;;;;;5042880;28;20248;-42
2021/12/09 10:01:52;;;;;;;64.33;26.57;;;1.70;99.90;;;;;;5050451;28;20217;-43
2021/12/09 10:04:32;;;;;;;63.07;28.57;;;1.70;99.90;;;;;;5050284;28;20221;-42
2021/12/09 10:07:00;;;;;;;57.43;26.00;;;1.70;99.90;;;;;;5053715;28;20222;-45
2021/12/09 10:09:27;;;;;;;59.73;27.27;;;1.70;99.90;;;;;;5036309;28;20230;-43
2021/12/09 10:11:55;;;;;;;60.90;26.27;;;1.80;99.90;;;;;;5054479;28;20197;-42
2021/12/09 10:14:26;;;;;;;53.57;24.20;;;1.70;99.90;;;;;;5042546;28;20222;-42
2021/12/09 10:17:07;;;;;;;54.03;25.60;;;1.70;99.90;;;;;;5048109;28;20555;-42
2021/12/09 10:19:35;;;;;;;58.50;24.93;;;1.70;99.90;;;;;;5043315;28;20211;-44
2021/12/09 10:22:08;;;;;;;58.70;26.20;;;1.70;99.90;;;;;;5055769;28;20213;-43
2021/12/09 10:24:36;;;;;;;55.07;25.60;;;1.70;99.90;;;;;;5035504;28;20207;-43
2021/12/09 10:27:03;;;;;;;52.93;23.77;;;1.70;99.90;;;;;;5031960;28;20820;-43
2021/12/09 10:29:33;;;;;;;62.23;26.33;;;1.70;99.90;;;;;;5048878;28;20227;-43
2021/12/09 10:32:03;;;;;;;58.60;26.17;;;1.70;99.90;;;;;;5047251;28;20200;-44
2021/12/09 10:34:35;;;;;;;62.63;26.10;;;1.70;99.90;;;;;;5045542;28;20435;-42
2021/12/09 10:37:14;;;;;;;58.70;25.60;;;1.70;99.90;;;;;;5043084;28;20207;-42
2021/12/09 10:39:47;;;;;;;61.97;25.40;;;1.70;99.90;;;;;;5047782;28;20222;-44
2021/12/09 10:42:18;;;;;;;56.47;26.23;;;1.70;99.90;;;;;;5032918;28;20207;-44
2021/12/09 10:44:50;;;;;;;57.30;25.07;;;1.80;99.90;;;;;;5043986;28;20702;-43
2021/12/09 10:47:37;;;;;;;62.87;25.83;;;1.70;99.90;;;;;;5040007;28;20190;-43
2021/12/09 10:50:16;;;;;;;61.13;25.57;;;1.80;99.90;;;;;;5045777;28;20215;-43
2021/12/09 10:52:48;;;;;;;62.07;26.27;;;1.80;99.90;;;;;;5050307;28;20412;-43
2021/12/09 10:55:26;;;;;;;55.27;26.43;;;1.80;99.90;;;;;;5027676;28;20365;-44
2021/12/09 10:57:59;;;;;;;57.80;26.07;;;1.80;99.90;;;;;;5048209;28;20205;-42
2021/12/09 11:00:34;;;;;;;58.20;27.20;;;1.80;99.90;;;;;;5037791;28;21242;-44
2021/12/09 11:03:21;;;;;;;56.50;25.57;;;1.80;99.90;;;;;;5044520;28;20207;-42
2021/12/09 11:05:54;;;;;;;64.90;26.33;;;1.90;99.90;;;;;;5043269;28;20349;-46
2021/12/09 11:08:31;;;;;;;56.70;24.73;;;1.90;99.90;;;;;;5039082;28;20221;-42
2021/12/09 11:11:05;;;;;;;57.73;24.97;;;1.90;99.90;;;;;;5047792;28;20446;-44
2021/12/09 11:13:41;;;;;;;60.37;25.93;;;1.90;99.90;;;;;;5043098;28;20202;-44
2021/12/09 11:16:08;;;;;;;54.03;25.43;;;2.00;99.90;;;;;;5045814;28;20214;-46
2021/12/09 11:18:40;;;;;;;59.60;27.40;;;1.90;99.90;;;;;;5042011;28;20226;-42
2021/12/09 11:21:11;;;;;;;64.13;27.33;;;1.90;99.90;;;;;;5043052;28;20206;-43
2021/12/09 11:23:51;;;;;;;58.37;24.80;;;2.00;99.90;;;;;;5053260;28;20214;-45
2021/12/09 11:26:28;;;;;;;60.90;26.33;;;2.00;99.90;;;;;;5031817;28;20297;-47
2021/12/09 11:28:57;;;;;;;56.53;25.30;;;2.00;99.90;;;;;;5053330;28;20229;-44
2021/12/09 11:31:28;;;;;;;64.87;26.73;;;2.00;99.90;;;;;;5042243;28;20202;-45
2021/12/09 11:34:04;;;;;;;60.27;25.37;;;2.00;99.90;;;;;;5046180;28;20198;-45
2021/12/09 11:36:44;;;;;;;59.87;27.03;;;2.00;99.90;;;;;;5044243;28;20206;-45
2021/12/09 11:39:16;;;;;;;57.13;26.43;;;2.00;99.90;;;;;;5048609;28;20219;-42
2021/12/09 11:41:44;;;;;;;60.10;25.93;;;2.10;99.90;;;;;;5042160;28;20223;-43
2021/12/09 11:44:12;;;;;;;61.70;26.07;;;2.10;99.90;;;;;;5048058;28;20195;-46
2021/12/09 11:46:40;;;;;;;57.20;25.93;;;2.10;99.90;;;;;;5042591;28;20215;-43
2021/12/09 11:49:09;;;;;;;62.77;26.10;;;2.10;99.90;;;;;;5045588;28;20939;-45
2021/12/09 11:51:36;;;;;;;57.07;26.37;;;2.10;99.90;;;;;;5043118;28;20203;-43
2021/12/09 11:54:06;;;;;;;57.87;27.63;;;2.10;99.90;;;;;;5046200;28;20194;-47
2021/12/09 11:56:40;;;;;;;58.50;25.53;;;2.10;99.90;;;;;;5055235;28;20212;-44
2021/12/09 12:11:35;;;;;;;61.73;26.67;;;2.30;99.90;;;;;;5056171;28;20346;-44
2021/12/09 12:14:09;;;;;;;60.87;25.70;;;2.40;99.90;;;;;;5032250;28;20311;-43
2021/12/09 12:16:52;;;;;;;66.37;25.90;;;2.40;99.90;;;;;;5050604;28;20206;-42
2021/12/09 12:19:55;;;;;;;69.07;27.27;;;2.40;99.90;;;;;;5054446;28;20584;-43
2021/12/09 12:22:52;;;;;;;57.17;26.17;;;2.40;99.90;;;;;;5051226;28;20730;-42
2021/12/09 12:28:47;;;;;;;62.73;26.97;;;2.40;99.90;;;;;;5058339;28;20207;-44
2021/12/09 12:32:00;;;;;;;57.27;27.47;;;2.40;99.90;;;;;;5031992;28;20226;-44
2021/12/09 12:35:05;;;;;;;60.53;26.73;;;2.40;99.90;;;;;;5042635;28;20322;-43
2021/12/09 12:37:51;;;;;;;54.90;24.23;;;2.40;99.90;;;;;;5045961;28;20211;-44
2021/12/09 12:40:21;;;;;;;57.93;25.73;;;2.30;99.90;;;;;;5056094;28;20213;-46
2021/12/09 12:42:54;;;;;;;55.07;26.50;;;2.30;99.90;;;;;;5056608;28;20285;-43
2021/12/09 12:45:47;;;;;;;71.50;28.00;;;2.20;99.90;;;;;;5061731;28;20202;-42
2021/12/09 12:48:46;;;;;;;56.73;26.13;;;2.30;99.90;;;;;;5051233;28;20222;-46
2021/12/09 12:51:19;;;;;;;64.30;27.17;;;2.30;99.90;;;;;;5055600;28;20222;-44
2021/12/09 12:53:48;;;;;;;62.10;26.17;;;2.40;99.90;;;;;;5046516;28;20198;-43
2021/12/09 12:56:17;;;;;;;61.87;26.87;;;2.40;99.90;;;;;;5058748;28;20206;-42
2021/12/09 12:59:32;;;;;;;61.50;26.13;;;2.40;99.90;;;;;;5057057;28;20206;-43
2021/12/09 13:02:57;;;;;;;58.17;26.67;;;2.50;99.90;;;;;;5014039;28;20223;-44
2021/12/09 13:05:50;;;;;;;55.73;25.90;;;2.40;99.90;;;;;;5045221;28;20272;-43